createdAt,value
2023-05-12T00:01:25.607Z,4.20
2023-05-12T00:03:30.706Z,3.67
2023-05-12T00:07:40.574Z,4.10
2023-05-12T00:09:45.528Z,3.60
2023-05-12T00:11:50.540Z,3.90
2023-05-12T00:13:57.262Z,3.20
2023-05-12T00:16:05.252Z,3.22
2023-05-12T00:18:10.198Z,3.55
2023-05-12T00:20:15.772Z,3.85
2023-05-12T00:22:20.948Z,3.40
2023-05-12T00:26:31.196Z,3.38
2023-05-12T00:30:41.082Z,3.92
2023-05-12T00:32:48.736Z,3.35
2023-05-12T00:34:54.738Z,3.50
2023-05-12T00:36:59.720Z,3.70
2023-05-12T00:39:04.826Z,3.33
2023-05-12T00:41:09.890Z,3.45
2023-05-12T00:43:14.923Z,3.67
2023-05-12T00:45:19.910Z,3.70
2023-05-12T00:47:24.902Z,3.67
2023-05-12T00:49:32.623Z,3.20
2023-05-12T00:51:37.660Z,3.60
2023-05-12T00:53:49.783Z,3.58
2023-05-12T00:55:57.847Z,3.25
2023-05-12T00:58:05.909Z,3.50
2023-05-12T01:00:13.315Z,3.50
2023-05-12T01:02:20.587Z,3.58
2023-05-12T01:04:25.789Z,3.30
2023-05-12T01:06:40.791Z,3.28
2023-05-12T01:10:53.613Z,3.85
2023-05-12T01:12:58.657Z,3.72
2023-05-12T01:15:03.755Z,3.33
2023-05-12T01:17:13.608Z,3.45
2023-05-12T01:19:34.919Z,3.58
2023-05-12T01:21:43.990Z,3.65
2023-05-12T01:23:54.820Z,4.13
2023-05-12T01:26:07.895Z,3.97
2023-05-12T01:28:13.974Z,3.70
2023-05-12T01:30:21.320Z,3.70
2023-05-12T01:32:26.582Z,3.42
2023-05-12T01:34:31.961Z,3.33
2023-05-12T01:36:36.817Z,3.60
2023-05-12T01:38:43.270Z,3.05
2023-05-12T01:40:48.229Z,3.75
2023-05-12T01:42:58.208Z,3.90
2023-05-12T01:45:09.613Z,3.78
2023-05-12T01:47:16.118Z,3.47
2023-05-12T01:49:27.165Z,4.00
2023-05-12T01:51:32.903Z,4.22
2023-05-12T01:53:37.856Z,3.85
2023-05-12T01:57:48.085Z,4.68
2023-05-12T01:59:56.209Z,4.80
2023-05-12T02:02:01.622Z,5.22
2023-05-12T02:04:09.435Z,4.88
2023-05-12T02:06:15.834Z,5.18
2023-05-12T02:08:18.348Z,5.03
2023-05-12T02:10:23.490Z,5.53
2023-05-12T02:12:28.719Z,5.78
2023-05-12T02:14:34.502Z,5.88
2023-05-12T02:16:42.374Z,5.43
2023-05-12T02:18:48.220Z,5.20
2023-05-12T02:20:53.892Z,4.85
2023-05-12T02:22:59.053Z,4.70
2023-05-12T02:27:09.984Z,5.15
2023-05-12T02:29:15.587Z,4.88
2023-05-12T02:31:21.038Z,4.97
2023-05-12T02:33:28.712Z,4.50
2023-05-12T02:35:34.967Z,5.10
2023-05-12T02:37:39.849Z,4.88
2023-05-12T02:39:44.764Z,4.75
2023-05-12T02:41:49.898Z,5.15
2023-05-12T02:46:00.193Z,5.88
2023-05-12T02:50:13.384Z,5.90
2023-05-12T02:52:20.705Z,5.43
2023-05-12T02:54:25.708Z,5.97
2023-05-12T02:56:33.797Z,5.38
2023-05-12T02:58:39.003Z,5.65
2023-05-12T03:02:48.808Z,5.28
2023-05-12T03:04:53.752Z,6.03
2023-05-12T03:07:01.280Z,6.28
2023-05-12T03:09:06.309Z,5.22
2023-05-12T03:11:11.390Z,5.38
2023-05-12T03:13:16.980Z,5.20
2023-05-12T03:15:24.918Z,5.22
2023-05-12T03:17:29.866Z,5.80
2023-05-12T03:19:35.157Z,5.53
2023-05-12T03:23:50.555Z,5.18
2023-05-12T03:25:55.676Z,5.80
2023-05-12T03:30:05.899Z,5.72
2023-05-12T03:32:14.441Z,5.57
2023-05-12T03:34:19.771Z,5.50
2023-05-12T03:38:29.536Z,5.28
2023-05-12T03:40:37.081Z,5.07
2023-05-12T03:42:42.068Z,5.35
2023-05-12T03:44:47.526Z,4.90
2023-05-12T03:46:52.707Z,4.50
2023-05-12T03:48:58.890Z,4.88
2023-05-12T03:51:04.093Z,4.50
2023-05-12T03:53:08.946Z,4.50
2023-05-12T03:55:13.841Z,4.65
2023-05-12T03:57:23.467Z,4.53
2023-05-12T03:59:29.559Z,4.63
2023-05-12T04:03:42.501Z,4.90
2023-05-12T04:05:47.691Z,5.25
2023-05-12T04:07:53.279Z,5.13
2023-05-12T04:09:58.405Z,5.55
2023-05-12T04:14:10.672Z,4.80
2023-05-12T04:16:15.673Z,4.53
2023-05-12T04:18:20.907Z,5.53
2023-05-12T04:20:25.896Z,5.35
2023-05-12T04:22:30.950Z,5.50
2023-05-12T04:24:36.129Z,5.55
2023-05-12T04:26:41.168Z,6.00
2023-05-12T04:28:47.908Z,5.18
2023-05-12T04:30:55.802Z,5.38
2023-05-12T04:33:02.926Z,5.57
2023-05-12T04:37:13.848Z,5.88
2023-05-12T04:39:20.737Z,5.07
2023-05-12T04:41:25.773Z,5.72
2023-05-12T04:45:41.640Z,5.63
2023-05-12T04:47:50.099Z,5.32
2023-05-12T04:49:55.133Z,5.53
2023-05-12T04:52:00.002Z,4.43
2023-05-12T04:54:07.907Z,4.70
2023-05-12T04:56:12.832Z,4.10
2023-05-12T04:58:17.863Z,4.57
2023-05-12T05:00:23.578Z,4.80
2023-05-12T05:02:29.400Z,4.60
2023-05-12T05:04:37.449Z,3.90
2023-05-12T05:06:44.511Z,3.80
2023-05-12T05:08:49.404Z,4.60
2023-05-12T05:10:55.420Z,4.78
2023-05-12T05:15:05.637Z,4.53
2023-05-12T05:17:12.402Z,4.13
2023-05-12T05:19:23.349Z,4.85
2023-05-12T05:21:37.776Z,4.75
2023-05-12T05:23:43.325Z,4.45
2023-05-12T05:27:53.231Z,4.05
2023-05-12T05:29:58.286Z,4.38
2023-05-12T05:32:04.603Z,4.53
2023-05-12T05:34:09.727Z,4.40
2023-05-12T05:36:15.258Z,4.30
2023-05-12T05:40:38.583Z,4.32
2023-05-12T05:42:50.156Z,4.53
2023-05-12T05:44:55.095Z,4.18
2023-05-12T05:47:01.542Z,4.82
2023-05-12T05:49:06.849Z,4.70
2023-05-12T05:51:11.765Z,4.20
2023-05-12T05:53:19.501Z,4.20
2023-05-12T05:55:27.592Z,4.30
2023-05-12T05:57:32.824Z,4.32
2023-05-12T05:59:38.645Z,4.45
2023-05-12T06:01:45.142Z,4.07
2023-05-12T06:03:50.210Z,3.97
2023-05-12T06:05:55.508Z,4.68
2023-05-12T06:08:01.850Z,4.38
2023-05-12T06:10:08.188Z,4.65
2023-05-12T06:12:15.674Z,4.63
2023-05-12T06:14:20.672Z,4.63
2023-05-12T06:16:26.089Z,4.05
2023-05-12T06:18:31.073Z,4.85
2023-05-12T06:20:36.221Z,4.85
2023-05-12T06:24:47.983Z,4.63
2023-05-12T06:26:52.908Z,4.50
2023-05-12T06:29:00.474Z,5.45
2023-05-12T06:31:05.656Z,4.50
2023-05-12T06:33:13.429Z,4.88
2023-05-12T06:35:18.850Z,3.78
2023-05-12T06:37:24.015Z,4.78
2023-05-12T06:39:28.933Z,3.90
2023-05-12T06:41:36.912Z,4.85
2023-05-12T06:43:43.427Z,5.15
2023-05-12T06:47:56.086Z,4.90
2023-05-12T06:50:00.976Z,5.18
2023-05-12T06:52:06.753Z,5.30
2023-05-12T06:54:11.655Z,4.75
2023-05-12T06:56:17.247Z,5.10
2023-05-12T06:58:22.418Z,4.88
2023-05-12T07:02:35.369Z,4.43
2023-05-12T07:04:40.376Z,4.97
2023-05-12T07:06:45.313Z,5.10
2023-05-12T07:08:50.285Z,4.95
2023-05-12T07:10:55.244Z,5.18
2023-05-12T07:13:00.233Z,8.52
2023-05-12T07:15:05.239Z,5.43
2023-05-12T07:17:10.202Z,4.22
2023-05-12T07:19:17.664Z,4.53
2023-05-12T07:21:25.095Z,4.57
2023-05-12T07:23:29.958Z,4.50
2023-05-12T07:25:34.933Z,4.13
2023-05-12T07:27:39.999Z,3.85
2023-05-12T07:29:45.031Z,4.07
2023-05-12T07:31:50.242Z,4.03
2023-05-12T07:33:55.359Z,4.32
2023-05-12T07:36:02.851Z,4.00
2023-05-12T07:38:09.699Z,4.85
2023-05-12T07:40:15.246Z,4.43
2023-05-12T07:42:20.223Z,4.30
2023-05-12T07:44:25.132Z,3.92
2023-05-12T07:46:30.118Z,4.72
2023-05-12T07:48:39.991Z,3.95
2023-05-12T07:50:45.464Z,4.40
2023-05-12T07:52:55.528Z,3.65
2023-05-12T07:55:00.608Z,4.15
2023-05-12T07:59:11.012Z,3.63
2023-05-12T08:01:16.009Z,3.97
2023-05-12T08:05:25.977Z,3.90
2023-05-12T08:07:30.870Z,3.88
2023-05-12T08:09:40.605Z,3.58
2023-05-12T08:11:47.589Z,3.85
2023-05-12T08:13:54.525Z,3.10
2023-05-12T08:15:59.491Z,3.20
2023-05-12T08:18:04.504Z,4.00
2023-05-12T08:20:10.937Z,3.10
2023-05-12T08:22:18.793Z,3.03
2023-05-12T08:24:24.073Z,3.08
2023-05-12T08:28:37.462Z,3.15
2023-05-12T08:30:45.927Z,3.20
2023-05-12T08:32:51.000Z,3.35
2023-05-12T08:37:01.349Z,2.97
2023-05-12T08:39:06.619Z,2.90
2023-05-12T08:41:19.280Z,3.40
2023-05-12T08:43:31.416Z,2.30
2023-05-12T08:45:40.402Z,3.45
2023-05-12T08:47:46.680Z,3.00
2023-05-12T08:50:01.874Z,3.33
2023-05-12T08:52:07.925Z,2.92
2023-05-12T08:54:15.530Z,3.47
2023-05-12T08:58:41.576Z,3.22
2023-05-12T09:00:48.068Z,3.78
2023-05-12T09:02:55.045Z,3.50
2023-05-12T09:05:01.118Z,3.08
2023-05-12T09:07:07.858Z,3.33
2023-05-12T09:09:14.222Z,3.00
2023-05-12T09:11:20.252Z,3.63
2023-05-12T09:13:32.915Z,3.50
2023-05-12T09:15:45.705Z,3.30
2023-05-12T09:17:50.644Z,2.78
2023-05-12T09:19:56.739Z,2.95
2023-05-12T09:22:01.926Z,2.47
2023-05-12T09:24:09.755Z,3.35
2023-05-12T09:26:14.737Z,3.58
2023-05-12T09:30:38.507Z,3.15
2023-05-12T09:32:46.179Z,3.70
2023-05-12T09:34:54.686Z,3.20
2023-05-12T09:37:01.225Z,2.90
2023-05-12T09:39:08.190Z,2.65
2023-05-12T09:41:13.123Z,2.50
2023-05-12T09:43:19.644Z,2.50
2023-05-12T09:45:24.813Z,2.60
2023-05-12T09:47:37.798Z,2.25
2023-05-12T09:49:55.507Z,3.10
2023-05-12T09:52:01.389Z,3.60
2023-05-12T09:54:08.042Z,3.28
2023-05-12T09:56:15.129Z,2.38
2023-05-12T09:58:21.489Z,3.50
2023-05-12T10:00:43.456Z,2.85
2023-05-12T10:02:53.040Z,2.90
2023-05-12T10:05:05.428Z,2.30
2023-05-12T10:07:13.005Z,2.58
2023-05-12T10:09:23.091Z,2.63
2023-05-12T10:11:28.964Z,2.03
2023-05-12T10:13:34.897Z,2.40
2023-05-12T10:15:39.876Z,2.25
2023-05-12T10:19:51.946Z,1.80
2023-05-12T10:22:00.157Z,1.60
2023-05-12T10:24:06.697Z,2.00
2023-05-12T10:26:13.961Z,1.52
2023-05-12T10:28:20.319Z,1.80
2023-05-12T10:30:26.372Z,2.05
2023-05-12T10:32:31.653Z,2.08
2023-05-12T10:34:37.796Z,2.10
2023-05-12T10:36:49.500Z,1.70
2023-05-12T10:38:57.073Z,2.08
2023-05-12T10:41:03.332Z,1.75
2023-05-12T10:43:08.233Z,1.80
2023-05-12T10:45:20.651Z,1.58
2023-05-12T10:47:29.563Z,1.90
2023-05-12T10:49:37.628Z,1.55
2023-05-12T10:51:52.217Z,1.90
2023-05-12T10:54:02.326Z,1.60
2023-05-12T10:56:09.168Z,1.92
2023-05-12T10:58:18.127Z,1.90
2023-05-12T11:00:29.047Z,2.22
2023-05-12T11:02:37.468Z,1.90
2023-05-12T11:04:45.542Z,2.10
2023-05-12T11:07:02.911Z,2.47
2023-05-12T11:09:11.358Z,2.38
2023-05-12T11:11:22.470Z,1.90
2023-05-12T11:13:28.161Z,2.65
2023-05-12T11:15:33.258Z,2.03
2023-05-12T11:19:56.082Z,1.85
2023-05-12T11:22:01.811Z,1.90
2023-05-12T11:24:07.143Z,1.67
2023-05-12T11:26:24.959Z,2.97
2023-05-12T11:28:30.008Z,2.42
2023-05-12T11:30:34.884Z,3.10
2023-05-12T11:32:40.009Z,2.58
2023-05-12T11:36:49.987Z,2.80
2023-05-12T11:38:54.952Z,2.45
2023-05-12T11:41:00.553Z,2.33
2023-05-12T11:43:13.419Z,2.42
2023-05-12T11:45:26.148Z,2.30
2023-05-12T11:47:31.291Z,2.60
2023-05-12T11:49:36.337Z,2.72
2023-05-12T11:51:45.403Z,2.80
2023-05-12T11:53:52.376Z,2.75
2023-05-12T11:55:59.364Z,3.10
2023-05-12T11:58:07.364Z,2.70
2023-05-12T12:00:13.270Z,2.83
2023-05-12T12:02:23.378Z,2.80
2023-05-12T12:04:40.669Z,2.83
2023-05-12T12:06:48.414Z,2.78
2023-05-12T12:08:55.070Z,2.85
2023-05-12T12:11:01.971Z,2.78
2023-05-12T12:13:10.996Z,2.92
2023-05-12T12:15:16.164Z,3.00
2023-05-12T12:19:31.429Z,3.10
2023-05-12T12:21:36.625Z,3.50
2023-05-12T12:23:50.400Z,2.90
2023-05-12T12:25:56.252Z,2.15
2023-05-12T12:30:09.978Z,2.30
2023-05-12T12:32:14.985Z,1.95
2023-05-12T12:36:26.617Z,1.95
2023-05-12T12:38:31.539Z,2.15
2023-05-12T12:40:36.677Z,2.20
2023-05-12T12:42:43.592Z,1.98
2023-05-12T12:44:50.439Z,1.73
2023-05-12T12:46:58.167Z,2.25
2023-05-12T12:49:03.195Z,2.10
2023-05-12T12:51:08.210Z,3.20
2023-05-12T12:55:18.029Z,2.00
2023-05-12T12:57:23.147Z,1.98
2023-05-12T12:59:28.196Z,1.70
2023-05-12T13:03:40.797Z,1.90
2023-05-12T13:05:45.741Z,1.83
2023-05-12T13:07:51.644Z,1.92
2023-05-12T13:09:56.726Z,1.73
2023-05-12T13:12:02.656Z,2.28
2023-05-12T13:14:08.448Z,1.70
2023-05-12T13:16:13.404Z,2.15
2023-05-12T13:18:20.744Z,2.35
2023-05-12T13:20:29.355Z,2.15
2023-05-12T13:22:34.365Z,2.38
2023-05-12T13:26:44.510Z,3.17
2023-05-12T13:30:55.314Z,2.55
2023-05-12T13:33:00.514Z,2.25
2023-05-12T13:35:05.704Z,1.98
2023-05-12T13:39:19.950Z,2.40
2023-05-12T13:41:24.916Z,2.47
2023-05-12T13:43:32.022Z,2.35
2023-05-12T13:45:37.012Z,2.60
2023-05-12T13:47:42.792Z,2.65
2023-05-12T13:49:47.819Z,2.40
2023-05-12T13:51:52.794Z,2.60
2023-05-12T13:54:00.275Z,2.00
2023-05-12T13:56:05.353Z,3.05
2023-05-12T13:58:10.222Z,2.30
2023-05-12T14:00:17.421Z,2.35
2023-05-12T14:02:25.508Z,4.50
2023-05-12T14:04:30.457Z,3.92
2023-05-12T14:06:35.414Z,2.75
2023-05-12T14:08:41.706Z,2.50
2023-05-12T14:10:49.503Z,2.20
2023-05-12T14:12:54.614Z,3.05
2023-05-12T14:15:15.942Z,3.97
2023-05-12T14:17:25.135Z,2.25
2023-05-12T14:19:30.622Z,4.93
2023-05-12T14:21:35.610Z,2.20
2023-05-12T14:23:40.711Z,2.30
2023-05-12T14:27:53.044Z,2.10
2023-05-12T14:29:57.961Z,1.92
2023-05-12T14:32:04.438Z,2.90
2023-05-12T14:34:09.549Z,2.70
2023-05-12T14:36:14.460Z,3.05
2023-05-12T14:38:19.762Z,3.35
2023-05-12T14:40:24.975Z,5.63
2023-05-12T14:42:32.423Z,3.15
2023-05-12T14:44:40.004Z,2.28
2023-05-12T14:46:45.420Z,2.47
2023-05-12T14:48:50.499Z,2.22
2023-05-12T14:50:55.959Z,2.08
2023-05-12T14:53:00.947Z,2.90
2023-05-12T14:55:08.474Z,3.72
2023-05-12T14:57:14.092Z,2.85
2023-05-12T15:01:26.378Z,2.38
2023-05-12T15:03:31.688Z,2.40
2023-05-12T15:05:56.728Z,2.58
2023-05-12T15:08:01.878Z,2.17
2023-05-12T15:10:07.240Z,2.45
2023-05-12T15:12:12.482Z,2.40
2023-05-12T15:14:17.980Z,2.40
2023-05-12T15:16:26.288Z,2.50
2023-05-12T15:18:34.070Z,2.50
2023-05-12T15:20:39.090Z,2.42
2023-05-12T15:22:44.386Z,3.22
2023-05-12T15:24:49.393Z,3.35
2023-05-12T15:28:59.517Z,2.80
2023-05-12T15:31:04.560Z,2.30
2023-05-12T15:35:16.892Z,2.55
2023-05-12T15:37:21.827Z,2.42
2023-05-12T15:41:31.533Z,2.53
2023-05-12T15:43:39.030Z,2.45
2023-05-12T15:45:43.989Z,2.53
2023-05-12T15:47:48.933Z,2.22
2023-05-12T15:49:53.832Z,2.40
2023-05-12T15:52:02.624Z,2.50
2023-05-12T15:54:09.763Z,2.75
2023-05-12T15:56:14.736Z,2.40
2023-05-12T15:58:22.176Z,2.40
2023-05-12T16:00:27.242Z,2.45
2023-05-12T16:04:37.207Z,2.55
2023-05-12T16:06:42.536Z,2.65
2023-05-12T16:08:50.003Z,2.30
2023-05-12T16:10:55.208Z,2.35
2023-05-12T16:15:05.581Z,2.00
2023-05-12T16:17:10.669Z,2.50
2023-05-12T16:21:20.656Z,2.20
2023-05-12T16:23:25.605Z,2.70
2023-05-12T16:25:33.135Z,4.30
2023-05-12T16:27:39.091Z,2.70
2023-05-12T16:29:45.942Z,2.28
2023-05-12T16:31:51.004Z,2.60
2023-05-12T16:33:56.510Z,1.95
2023-05-12T16:36:01.487Z,2.05
2023-05-12T16:38:06.797Z,1.85
2023-05-12T16:40:12.827Z,2.47
2023-05-12T16:42:20.626Z,1.80
2023-05-12T16:44:25.723Z,1.88
2023-05-12T16:46:32.904Z,2.60
2023-05-12T16:48:39.449Z,2.92
2023-05-12T16:50:44.582Z,1.80
2023-05-12T16:54:54.351Z,2.50
2023-05-12T16:57:03.375Z,2.20
2023-05-12T16:59:11.283Z,2.13
2023-05-12T17:01:16.488Z,2.10
2023-05-12T17:05:29.522Z,2.13
2023-05-12T17:07:35.466Z,1.92
2023-05-12T17:09:40.558Z,2.13
2023-05-12T17:13:50.404Z,2.05
2023-05-12T17:15:58.009Z,2.13
2023-05-12T17:18:03.026Z,2.60
2023-05-12T17:20:09.393Z,2.53
2023-05-12T17:22:14.551Z,2.22
2023-05-12T17:26:24.181Z,1.88
2023-05-12T17:28:29.310Z,2.13
2023-05-12T17:30:34.224Z,2.38
2023-05-12T17:32:41.938Z,2.22
2023-05-12T17:34:46.910Z,2.17
2023-05-12T17:36:51.800Z,2.20
2023-05-12T17:38:56.890Z,2.28
2023-05-12T17:41:02.970Z,2.45
2023-05-12T17:43:08.049Z,2.22
2023-05-12T17:47:21.867Z,2.65
2023-05-12T17:49:29.570Z,2.20
2023-05-12T17:51:35.521Z,2.10
2023-05-12T17:53:40.491Z,2.00
2023-05-12T17:55:45.583Z,2.00
2023-05-12T17:59:55.421Z,1.85
2023-05-12T18:04:05.307Z,1.63
2023-05-12T18:06:15.110Z,1.70
2023-05-12T18:08:20.157Z,1.70
2023-05-12T18:10:25.165Z,2.00
2023-05-12T18:12:30.239Z,2.03
2023-05-12T18:14:35.385Z,2.00
2023-05-12T18:18:45.213Z,1.67
2023-05-12T18:22:57.617Z,2.45
2023-05-12T18:25:02.528Z,2.03
2023-05-12T18:27:07.924Z,2.20
2023-05-12T18:29:12.985Z,1.88
2023-05-12T18:31:19.998Z,1.80
2023-05-12T18:33:24.967Z,1.77
2023-05-12T18:35:29.882Z,1.95
2023-05-12T18:37:34.889Z,1.80
2023-05-12T18:39:45.497Z,2.13
2023-05-12T18:41:50.524Z,2.10
2023-05-12T18:46:03.151Z,2.20
2023-05-12T18:48:08.707Z,2.30
2023-05-12T18:50:14.212Z,2.40
2023-05-12T18:52:20.875Z,3.17
2023-05-12T18:54:26.221Z,3.08
2023-05-12T18:56:33.994Z,2.55
2023-05-12T18:58:41.567Z,2.63
2023-05-12T19:00:48.619Z,2.28
2023-05-12T19:02:55.362Z,2.50
2023-05-12T19:05:09.348Z,2.30
2023-05-12T19:07:15.661Z,1.80
2023-05-12T19:09:20.706Z,2.20
2023-05-12T19:11:26.966Z,1.92
2023-05-12T19:13:34.715Z,2.58
2023-05-12T19:15:42.154Z,2.58
2023-05-12T19:17:47.301Z,2.00
2023-05-12T19:19:52.403Z,2.28
2023-05-12T19:21:57.479Z,2.53
2023-05-12T19:24:03.417Z,1.83
2023-05-12T19:26:11.050Z,2.00
2023-05-12T19:28:16.058Z,2.10
2023-05-12T19:30:25.490Z,2.00
2023-05-12T19:32:31.821Z,3.58
2023-05-12T19:34:37.398Z,2.70
2023-05-12T19:40:53.942Z,2.30
2023-05-12T19:43:05.353Z,2.33
2023-05-12T19:45:13.723Z,1.70
2023-05-12T19:47:25.253Z,2.03
2023-05-12T19:49:30.243Z,2.90
2023-05-12T19:51:35.332Z,2.75
2023-05-12T19:53:40.478Z,2.63
2023-05-12T19:57:52.048Z,3.30
2023-05-12T19:59:57.044Z,3.15
2023-05-12T20:02:02.133Z,3.55
2023-05-12T20:06:14.581Z,2.85
2023-05-12T20:10:24.913Z,2.60
2023-05-12T20:12:32.512Z,2.33
2023-05-12T20:14:38.623Z,2.50
2023-05-12T20:16:43.570Z,2.40
2023-05-12T20:18:48.514Z,2.45
2023-05-12T20:20:56.112Z,2.30
2023-05-12T20:23:01.256Z,2.35
2023-05-12T20:25:06.901Z,2.58
2023-05-12T20:27:12.230Z,2.83
2023-05-12T20:29:21.040Z,2.50
2023-05-12T20:31:26.131Z,2.50
2023-05-12T20:35:36.163Z,2.60
2023-05-12T20:39:52.845Z,2.95
2023-05-12T20:41:58.686Z,2.80
2023-05-12T20:44:03.732Z,2.80
2023-05-12T20:46:09.199Z,2.40
2023-05-12T20:48:14.536Z,2.30
2023-05-12T20:50:20.115Z,2.08
2023-05-12T20:52:28.994Z,2.15
2023-05-12T20:54:36.770Z,1.83
2023-05-12T20:56:43.637Z,2.30
2023-05-12T20:58:48.773Z,2.17
2023-05-12T21:00:53.796Z,2.08
2023-05-12T21:05:05.326Z,2.50
2023-05-12T21:07:10.317Z,2.92
2023-05-12T21:09:15.458Z,3.47
2023-05-12T21:13:30.782Z,2.85
2023-05-12T21:15:36.017Z,2.42
2023-05-12T21:17:44.110Z,2.75
2023-05-12T21:19:49.145Z,2.60
2023-05-12T21:21:54.121Z,2.53
2023-05-12T21:26:04.046Z,2.38
2023-05-12T21:28:11.572Z,2.22
2023-05-12T21:30:16.878Z,2.40
2023-05-12T21:32:22.061Z,2.28
2023-05-12T21:34:27.008Z,1.98
2023-05-12T21:36:32.540Z,2.58
2023-05-12T21:38:37.610Z,2.35
2023-05-12T21:42:47.749Z,2.55
2023-05-12T21:47:01.302Z,3.70
2023-05-12T21:49:06.280Z,3.20
2023-05-12T21:51:11.277Z,2.60
2023-05-12T21:53:16.231Z,2.67
2023-05-12T21:55:21.228Z,2.40
2023-05-12T21:59:30.987Z,3.22
2023-05-12T22:01:38.783Z,3.42
2023-05-12T22:03:43.717Z,2.60
2023-05-12T22:05:49.377Z,2.22
2023-05-12T22:07:54.372Z,2.38
2023-05-12T22:09:59.344Z,2.05
2023-05-12T22:12:04.271Z,2.33
2023-05-12T22:14:09.140Z,2.08
2023-05-12T22:16:14.068Z,2.00
2023-05-12T22:18:24.918Z,1.83
2023-05-12T22:20:30.359Z,2.30
2023-05-12T22:22:38.020Z,1.92
2023-05-12T22:24:44.011Z,2.40
2023-05-12T22:26:49.111Z,2.30
2023-05-12T22:28:54.010Z,2.42
2023-05-12T22:30:59.008Z,2.22
2023-05-12T22:33:04.483Z,2.38
2023-05-12T22:35:12.768Z,2.10
2023-05-12T22:37:17.817Z,2.35
2023-05-12T22:39:22.785Z,2.40
2023-05-12T22:41:27.695Z,2.50
2023-05-12T22:43:32.587Z,2.60
2023-05-12T22:45:37.442Z,2.40
2023-05-12T22:47:42.612Z,2.70
2023-05-12T22:49:47.707Z,2.50
2023-05-12T22:51:55.173Z,2.65
2023-05-12T22:54:00.052Z,2.40
2023-05-12T22:56:04.949Z,2.58
2023-05-12T22:58:10.577Z,2.58
2023-05-12T23:00:16.729Z,2.55
2023-05-12T23:02:21.744Z,2.10
2023-05-12T23:04:26.810Z,2.45
2023-05-12T23:06:32.616Z,2.30
2023-05-12T23:08:40.094Z,2.65
2023-05-12T23:10:44.991Z,2.30
2023-05-12T23:12:50.661Z,2.50
2023-05-12T23:14:55.609Z,2.42
2023-05-12T23:17:00.606Z,2.10
2023-05-12T23:19:05.737Z,2.45
2023-05-12T23:21:10.660Z,2.30
2023-05-12T23:23:15.514Z,2.20
2023-05-12T23:25:23.304Z,2.20
2023-05-12T23:27:28.359Z,2.03
2023-05-12T23:29:34.676Z,2.55
2023-05-12T23:31:42.080Z,2.00
2023-05-12T23:33:47.064Z,2.53
2023-05-12T23:35:52.064Z,2.30
2023-05-12T23:37:57.008Z,2.35
2023-05-12T23:40:02.092Z,2.20
2023-05-12T23:42:10.138Z,2.60
2023-05-12T23:44:15.293Z,2.42
2023-05-12T23:48:26.319Z,2.13
2023-05-12T23:50:31.315Z,2.40
2023-05-12T23:52:36.376Z,2.50
2023-05-12T23:54:41.295Z,2.40
2023-05-12T23:56:46.206Z,2.30
2023-05-12T23:58:53.872Z,2.60
